createdAt,value
2017-12-09T00:01:27.399Z,4.30
2017-12-09T00:03:57.434Z,4.10
2017-12-09T00:06:25.724Z,4.10
2017-12-09T00:08:53.982Z,4.10
2017-12-09T00:11:22.236Z,4.00
2017-12-09T00:13:57.697Z,4.00
2017-12-09T00:16:26.939Z,3.80
2017-12-09T00:19:01.114Z,3.80
2017-12-09T00:21:30.154Z,3.70
2017-12-09T00:23:58.489Z,3.70
2017-12-09T00:26:27.523Z,3.60
2017-12-09T00:28:55.802Z,3.60
2017-12-09T00:31:24.106Z,3.50
2017-12-09T00:33:52.377Z,3.50
2017-12-09T00:36:20.720Z,3.40
2017-12-09T00:38:49.034Z,3.40
2017-12-09T00:41:17.730Z,3.40
2017-12-09T00:43:45.998Z,3.40
2017-12-09T00:46:14.297Z,3.30
2017-12-09T00:48:42.577Z,3.30
2017-12-09T00:51:11.882Z,3.20
2017-12-09T00:53:40.211Z,3.20
2017-12-09T00:56:08.489Z,3.20
2017-12-09T00:58:36.765Z,3.10
2017-12-09T01:01:05.113Z,3.10
2017-12-09T01:03:33.416Z,3.10
2017-12-09T01:06:01.730Z,3.00
2017-12-09T01:08:30.008Z,3.00
2017-12-09T01:10:58.347Z,3.00
2017-12-09T01:13:26.612Z,3.00
2017-12-09T01:29:27.280Z,2.90
2017-12-09T01:31:55.658Z,2.90
2017-12-09T01:34:23.932Z,2.90
2017-12-09T01:36:52.254Z,2.90
2017-12-09T01:39:27.529Z,2.90
2017-12-09T01:41:55.794Z,2.90
2017-12-09T01:44:24.136Z,3.00
2017-12-09T01:46:52.472Z,3.00
2017-12-09T01:49:20.756Z,3.00
2017-12-09T01:51:49.057Z,3.00
2017-12-09T01:54:17.314Z,3.00
2017-12-09T01:56:45.630Z,3.10
2017-12-09T01:59:13.961Z,3.10
2017-12-09T02:01:43.029Z,3.10
2017-12-09T02:04:11.347Z,3.00
2017-12-09T02:06:39.662Z,3.10
2017-12-09T02:09:08.741Z,3.20
2017-12-09T02:11:37.057Z,3.20
2017-12-09T02:14:05.357Z,3.20
2017-12-09T02:16:33.640Z,3.20
2017-12-09T02:19:01.928Z,3.30
2017-12-09T02:21:31.278Z,3.20
2017-12-09T02:24:00.308Z,3.20
2017-12-09T02:26:28.679Z,3.20
2017-12-09T02:28:57.704Z,3.20
2017-12-09T02:31:26.033Z,3.20
2017-12-09T02:33:55.097Z,3.10
2017-12-09T02:36:25.131Z,3.10
2017-12-09T02:38:57.256Z,3.10
2017-12-09T02:41:25.683Z,3.10
2017-12-09T02:43:54.001Z,3.10
2017-12-09T02:46:22.257Z,3.10
2017-12-09T02:48:52.299Z,3.10
2017-12-09T02:51:22.228Z,3.10
2017-12-09T02:53:50.556Z,3.10
2017-12-09T02:56:27.289Z,3.10
2017-12-09T02:58:55.600Z,3.10
2017-12-09T03:01:23.915Z,3.10
2017-12-09T03:03:52.233Z,3.10
2017-12-09T03:06:20.593Z,3.10
2017-12-09T03:08:49.121Z,3.20
2017-12-09T03:11:17.396Z,3.20
2017-12-09T03:13:45.734Z,3.30
2017-12-09T03:16:14.000Z,3.30
2017-12-09T03:18:42.364Z,3.40
2017-12-09T03:21:11.473Z,3.60
2017-12-09T03:23:39.822Z,3.60
2017-12-09T03:26:08.171Z,3.70
2017-12-09T03:28:36.480Z,3.80
2017-12-09T03:31:04.878Z,3.90
2017-12-09T03:33:33.226Z,3.90
2017-12-09T03:36:01.484Z,3.90
2017-12-09T03:38:29.746Z,4.00
2017-12-09T03:40:58.106Z,4.00
2017-12-09T03:43:26.973Z,4.10
2017-12-09T03:45:56.354Z,4.10
2017-12-09T03:48:24.641Z,4.10
2017-12-09T03:50:52.924Z,4.10
2017-12-09T03:53:22.004Z,4.20
2017-12-09T03:55:50.358Z,4.10
2017-12-09T03:58:18.693Z,4.20
2017-12-09T04:00:51.478Z,4.20
2017-12-09T04:03:21.064Z,4.20
2017-12-09T04:05:49.363Z,4.20
2017-12-09T04:08:18.427Z,4.30
2017-12-09T04:10:46.706Z,4.30
2017-12-09T04:13:14.981Z,4.30
2017-12-09T04:15:43.297Z,4.30
2017-12-09T04:18:11.562Z,4.40
2017-12-09T04:20:40.717Z,4.30
2017-12-09T04:23:08.975Z,4.40
2017-12-09T04:25:37.228Z,4.40
2017-12-09T04:28:05.541Z,4.40
2017-12-09T04:30:33.809Z,4.40
2017-12-09T04:33:02.104Z,4.70
2017-12-09T04:35:30.401Z,4.40
2017-12-09T04:37:58.781Z,4.40
2017-12-09T04:40:27.033Z,4.40
2017-12-09T04:42:55.336Z,4.40
2017-12-09T04:45:36.302Z,4.30
2017-12-09T04:48:04.561Z,4.30
2017-12-09T04:50:32.850Z,4.30
2017-12-09T04:53:01.155Z,4.20
2017-12-09T04:55:35.432Z,4.20
2017-12-09T04:58:03.787Z,4.20
2017-12-09T05:00:32.800Z,4.20
2017-12-09T05:03:01.092Z,4.10
2017-12-09T05:05:29.345Z,4.10
2017-12-09T05:07:57.667Z,4.10
2017-12-09T05:10:25.989Z,4.00
2017-12-09T05:12:54.356Z,4.00
2017-12-09T05:15:23.403Z,3.90
2017-12-09T05:17:51.700Z,3.90
2017-12-09T05:20:20.009Z,3.90
2017-12-09T05:22:49.044Z,4.00
2017-12-09T05:25:17.427Z,4.00
2017-12-09T05:27:45.669Z,4.00
2017-12-09T05:30:14.894Z,4.00
2017-12-09T05:32:43.895Z,4.00
2017-12-09T05:35:12.187Z,3.90
2017-12-09T05:37:40.464Z,4.00
2017-12-09T05:40:08.757Z,3.90
2017-12-09T05:42:37.059Z,3.90
2017-12-09T05:45:06.084Z,3.90
2017-12-09T05:47:34.385Z,3.90
2017-12-09T05:50:02.663Z,3.90
2017-12-09T05:52:30.937Z,3.90
2017-12-09T05:54:59.232Z,3.90
2017-12-09T05:57:27.492Z,3.80
2017-12-09T05:59:55.791Z,3.90
2017-12-09T06:02:24.048Z,3.90
2017-12-09T06:04:52.421Z,3.90
2017-12-09T06:07:20.701Z,3.90
2017-12-09T06:09:49.015Z,3.90
2017-12-09T06:12:17.275Z,3.80
2017-12-09T06:14:45.576Z,3.80
2017-12-09T06:17:15.667Z,3.80
2017-12-09T06:19:44.287Z,3.80
2017-12-09T06:22:12.536Z,3.80
2017-12-09T06:24:40.920Z,3.80
2017-12-09T06:27:09.254Z,3.80
2017-12-09T06:29:42.609Z,3.80
2017-12-09T06:32:11.660Z,3.90
2017-12-09T06:34:39.944Z,3.90
2017-12-09T06:37:08.266Z,3.90
2017-12-09T06:39:37.323Z,3.80
2017-12-09T06:42:05.675Z,3.80
2017-12-09T06:44:34.096Z,3.80
2017-12-09T06:47:02.469Z,3.70
2017-12-09T06:49:30.744Z,3.60
2017-12-09T06:52:03.562Z,3.60
2017-12-09T06:54:32.610Z,3.60
2017-12-09T06:57:13.539Z,3.60
2017-12-09T06:59:42.590Z,3.60
2017-12-09T07:02:10.926Z,3.60
2017-12-09T07:04:39.294Z,3.50
2017-12-09T07:07:07.673Z,3.50
2017-12-09T07:09:35.948Z,3.50
2017-12-09T07:12:05.177Z,3.40
2017-12-09T07:14:34.702Z,3.40
2017-12-09T07:17:02.976Z,3.30
2017-12-09T07:19:31.228Z,3.30
2017-12-09T07:22:01.492Z,3.20
2017-12-09T07:24:29.769Z,3.20
2017-12-09T07:26:58.051Z,3.20
2017-12-09T07:29:26.572Z,3.10
2017-12-09T07:31:54.934Z,3.10
2017-12-09T07:34:23.190Z,3.10
2017-12-09T07:36:51.469Z,3.10
2017-12-09T07:39:19.834Z,3.40
2017-12-09T07:41:48.157Z,3.00
2017-12-09T07:44:16.782Z,3.10
2017-12-09T07:46:45.688Z,3.10
2017-12-09T07:49:15.980Z,3.10
2017-12-09T07:51:45.057Z,3.00
2017-12-09T07:54:14.154Z,3.10
2017-12-09T07:56:43.213Z,3.10
2017-12-09T07:59:11.529Z,3.10
2017-12-09T08:01:41.638Z,3.10
2017-12-09T08:04:09.900Z,3.10
2017-12-09T08:06:38.931Z,3.20
2017-12-09T08:09:07.997Z,3.30
2017-12-09T08:11:36.305Z,3.30
2017-12-09T08:14:05.459Z,3.30
2017-12-09T08:16:33.793Z,3.30
2017-12-09T08:19:02.107Z,3.40
2017-12-09T08:21:30.382Z,3.40
2017-12-09T08:24:00.630Z,3.40
2017-12-09T08:26:28.905Z,3.50
2017-12-09T08:28:57.169Z,3.50
2017-12-09T08:31:25.532Z,3.60
2017-12-09T08:33:53.808Z,3.60
2017-12-09T08:36:22.115Z,3.70
2017-12-09T08:38:50.386Z,3.70
2017-12-09T08:41:19.349Z,3.80
2017-12-09T08:43:47.654Z,3.80
2017-12-09T08:46:15.959Z,3.90
2017-12-09T08:48:44.246Z,4.00
2017-12-09T08:51:12.531Z,4.10
2017-12-09T08:53:40.808Z,4.30
2017-12-09T08:56:09.072Z,4.40
2017-12-09T08:58:37.627Z,4.50
2017-12-09T09:01:05.875Z,4.70
2017-12-09T09:03:34.140Z,4.80
2017-12-09T09:06:03.476Z,4.90
2017-12-09T09:08:31.772Z,5.00
2017-12-09T09:11:00.886Z,5.10
2017-12-09T09:13:29.179Z,5.10
2017-12-09T09:15:57.465Z,5.10
2017-12-09T09:18:26.506Z,5.10
2017-12-09T09:20:54.818Z,5.10
2017-12-09T09:23:23.112Z,5.10
2017-12-09T09:25:51.418Z,5.10
2017-12-09T09:28:19.749Z,5.10
2017-12-09T09:30:48.374Z,5.10
2017-12-09T09:33:17.470Z,5.20
2017-12-09T09:35:46.531Z,5.20
2017-12-09T09:38:14.769Z,5.20
2017-12-09T09:40:43.058Z,5.30
2017-12-09T09:43:11.360Z,5.40
2017-12-09T09:45:39.669Z,5.50
2017-12-09T09:48:07.991Z,5.60
2017-12-09T09:50:36.304Z,5.70
2017-12-09T09:53:04.561Z,5.70
2017-12-09T09:55:32.839Z,5.70
2017-12-09T09:58:01.131Z,5.70
2017-12-09T10:00:29.378Z,5.70
2017-12-09T10:02:57.671Z,5.60
2017-12-09T10:05:25.918Z,5.50
2017-12-09T10:07:54.734Z,5.40
2017-12-09T10:10:23.066Z,5.20
2017-12-09T10:12:51.354Z,5.00
2017-12-09T10:15:19.685Z,4.80
2017-12-09T10:17:48.024Z,4.70
2017-12-09T10:20:16.374Z,4.60
2017-12-09T10:22:45.415Z,4.60
2017-12-09T10:25:14.047Z,4.50
2017-12-09T10:27:42.311Z,4.60
2017-12-09T10:30:10.594Z,4.60
2017-12-09T10:32:38.921Z,4.60
2017-12-09T10:35:07.234Z,4.60
2017-12-09T10:37:35.575Z,4.60
2017-12-09T10:40:03.848Z,4.60
2017-12-09T10:42:32.447Z,4.70
2017-12-09T10:45:00.732Z,4.70
2017-12-09T10:47:29.076Z,4.70
2017-12-09T10:49:57.490Z,4.70
2017-12-09T10:52:25.918Z,4.70
2017-12-09T10:54:55.164Z,4.70
2017-12-09T10:57:23.398Z,4.70
2017-12-09T10:59:52.767Z,4.60
2017-12-09T11:02:21.068Z,4.60
2017-12-09T11:04:49.464Z,4.60
2017-12-09T11:07:17.790Z,4.60
2017-12-09T11:09:46.059Z,4.50
2017-12-09T11:12:14.342Z,4.50
2017-12-09T11:14:42.655Z,4.50
2017-12-09T11:17:11.275Z,4.50
2017-12-09T11:19:39.538Z,4.40
2017-12-09T11:22:07.950Z,4.40
2017-12-09T11:24:36.240Z,4.50
2017-12-09T11:27:04.549Z,4.60
2017-12-09T11:29:33.729Z,4.60
2017-12-09T11:32:02.004Z,4.60
2017-12-09T11:34:30.630Z,4.60
2017-12-09T11:36:59.793Z,4.60
2017-12-09T11:39:28.108Z,4.60
2017-12-09T11:41:57.178Z,4.60
2017-12-09T11:44:25.451Z,4.50
2017-12-09T11:46:53.750Z,4.50
2017-12-09T11:49:22.035Z,4.40
2017-12-09T11:51:51.410Z,4.30
2017-12-09T11:54:19.682Z,4.30
2017-12-09T11:56:48.092Z,4.30
2017-12-09T11:59:17.181Z,4.30
2017-12-09T12:01:49.997Z,4.30
2017-12-09T12:04:18.309Z,4.40
2017-12-09T12:06:46.598Z,4.30
2017-12-09T12:09:15.417Z,4.30
2017-12-09T12:11:43.666Z,4.30
2017-12-09T12:14:12.776Z,4.40
2017-12-09T12:16:42.509Z,4.40
2017-12-09T12:19:11.562Z,4.40
2017-12-09T12:21:40.220Z,4.40
2017-12-09T12:24:08.502Z,4.40
2017-12-09T12:26:36.771Z,4.40
2017-12-09T12:29:05.098Z,4.40
2017-12-09T12:31:34.192Z,4.40
2017-12-09T12:34:02.795Z,4.30
2017-12-09T12:36:31.065Z,4.40
2017-12-09T12:39:00.122Z,4.30
2017-12-09T12:41:28.420Z,4.30
2017-12-09T12:43:56.708Z,4.20
2017-12-09T12:46:25.414Z,4.20
2017-12-09T12:48:53.765Z,4.10
2017-12-09T12:51:22.077Z,4.10
2017-12-09T12:53:50.465Z,4.00
2017-12-09T12:56:26.050Z,4.00
2017-12-09T12:58:55.479Z,3.80
2017-12-09T13:01:36.486Z,3.80
2017-12-09T13:04:05.926Z,3.70
2017-12-09T13:06:34.235Z,3.70
2017-12-09T13:09:02.572Z,3.60
2017-12-09T13:11:41.574Z,3.60
2017-12-09T13:14:10.508Z,3.60
2017-12-09T13:16:40.197Z,3.60
2017-12-09T13:22:15.853Z,3.50
2017-12-09T13:24:44.972Z,3.50
2017-12-09T13:27:14.098Z,3.50
2017-12-09T13:29:43.221Z,3.50
2017-12-09T13:32:11.474Z,3.40
2017-12-09T13:34:39.852Z,3.50
2017-12-09T13:37:08.153Z,3.40
2017-12-09T13:39:36.892Z,3.50
2017-12-09T13:42:05.182Z,3.50
2017-12-09T13:44:33.469Z,3.50
2017-12-09T13:47:01.783Z,3.50
2017-12-09T13:49:31.473Z,3.50
2017-12-09T13:52:00.287Z,3.50
2017-12-09T13:54:28.575Z,3.50
2017-12-09T13:56:58.078Z,3.60
2017-12-09T13:59:29.104Z,3.60
2017-12-09T14:01:57.754Z,3.60
2017-12-09T14:04:26.113Z,3.60
2017-12-09T14:06:55.994Z,3.60
2017-12-09T14:09:24.306Z,3.60
2017-12-09T14:11:52.586Z,3.60
2017-12-09T14:14:21.669Z,3.60
2017-12-09T14:16:50.722Z,3.60
2017-12-09T14:19:19.273Z,3.60
2017-12-09T14:21:47.566Z,3.60
2017-12-09T14:24:15.829Z,3.60
2017-12-09T14:26:44.145Z,3.60
2017-12-09T14:29:12.424Z,3.60
2017-12-09T14:31:40.729Z,3.60
2017-12-09T14:34:09.915Z,3.60
2017-12-09T14:36:38.533Z,3.60
2017-12-09T14:39:07.573Z,3.60
2017-12-09T14:41:39.156Z,3.60
2017-12-09T14:44:08.223Z,3.60
2017-12-09T14:46:36.528Z,3.60
2017-12-09T14:49:04.852Z,3.70
2017-12-09T14:51:33.129Z,3.70
2017-12-09T14:54:01.456Z,3.70
2017-12-09T14:56:33.259Z,3.70
2017-12-09T14:59:01.618Z,3.70
2017-12-09T15:01:29.886Z,3.70
2017-12-09T15:03:58.989Z,3.80
2017-12-09T15:06:31.023Z,3.70
2017-12-09T15:08:59.330Z,3.80
2017-12-09T15:11:28.509Z,3.80
2017-12-09T15:13:56.783Z,3.80
2017-12-09T15:16:25.480Z,3.80
2017-12-09T15:18:53.759Z,3.80
2017-12-09T15:21:22.054Z,3.80
2017-12-09T15:23:51.142Z,3.90
2017-12-09T15:26:19.410Z,3.80
2017-12-09T15:28:47.705Z,3.90
2017-12-09T15:31:16.906Z,3.90
2017-12-09T15:33:45.578Z,3.90
2017-12-09T15:36:14.153Z,3.90
2017-12-09T15:38:43.389Z,3.90
2017-12-09T15:41:12.493Z,3.90
2017-12-09T15:43:44.220Z,3.90
2017-12-09T15:46:14.649Z,3.90
2017-12-09T15:48:42.918Z,4.00
2017-12-09T15:51:11.642Z,4.00
2017-12-09T15:53:40.019Z,4.00
2017-12-09T15:56:10.106Z,4.00
2017-12-09T15:58:38.599Z,4.00
2017-12-09T16:01:06.940Z,4.00
2017-12-09T16:03:36.073Z,4.00
2017-12-09T16:06:05.437Z,4.00
2017-12-09T16:08:34.044Z,4.00
2017-12-09T16:11:03.320Z,4.00
2017-12-09T16:13:31.628Z,4.00
2017-12-09T16:15:59.978Z,4.00
2017-12-09T16:18:28.356Z,4.00
2017-12-09T16:20:56.713Z,4.00
2017-12-09T16:23:25.067Z,4.00
2017-12-09T16:25:53.656Z,4.00
2017-12-09T16:28:22.728Z,4.00
2017-12-09T16:30:51.127Z,4.00
2017-12-09T16:33:19.449Z,4.00
2017-12-09T16:35:47.741Z,4.00
2017-12-09T16:38:16.095Z,4.00
2017-12-09T16:40:44.403Z,4.00
2017-12-09T16:43:12.769Z,4.00
2017-12-09T16:45:41.794Z,4.00
2017-12-09T16:48:10.373Z,4.00
2017-12-09T16:50:38.672Z,4.00
2017-12-09T16:53:06.946Z,4.00
2017-12-09T16:55:35.262Z,4.00
2017-12-09T16:58:03.557Z,4.00
2017-12-09T17:00:31.877Z,4.00
2017-12-09T17:03:00.174Z,4.00
2017-12-09T17:05:28.508Z,4.00
2017-12-09T17:07:56.823Z,4.00
2017-12-09T17:10:26.269Z,4.00
2017-12-09T17:12:54.535Z,4.00
2017-12-09T17:15:22.867Z,4.00
2017-12-09T17:17:51.192Z,4.00
2017-12-09T17:20:19.526Z,4.00
2017-12-09T17:22:48.039Z,4.00
2017-12-09T17:25:16.395Z,4.00
2017-12-09T17:27:44.944Z,4.00
2017-12-09T17:30:13.247Z,4.00
2017-12-09T17:32:41.532Z,4.00
2017-12-09T17:35:09.849Z,4.00
2017-12-09T17:37:38.126Z,4.00
2017-12-09T17:40:07.374Z,4.00
2017-12-09T17:42:36.726Z,4.00
2017-12-09T17:49:54.325Z,3.90
2017-12-09T17:52:23.614Z,3.90
2017-12-09T17:54:52.258Z,3.90
2017-12-09T17:57:20.996Z,3.90
2017-12-09T17:59:49.271Z,3.90
2017-12-09T18:02:18.346Z,3.90
2017-12-09T18:04:46.643Z,4.00
2017-12-09T18:07:14.963Z,4.00
2017-12-09T18:09:43.218Z,4.00
2017-12-09T18:12:11.698Z,4.00
2017-12-09T18:14:39.992Z,4.00
2017-12-09T18:17:08.583Z,4.10
2017-12-09T18:19:36.848Z,4.10
2017-12-09T18:22:05.169Z,4.00
2017-12-09T18:24:33.502Z,4.00
2017-12-09T18:27:01.818Z,4.00
2017-12-09T18:29:30.927Z,4.00
2017-12-09T18:31:59.970Z,3.90
2017-12-09T18:34:28.577Z,4.00
2017-12-09T18:36:56.894Z,4.00
2017-12-09T18:39:25.181Z,3.90
2017-12-09T18:41:53.483Z,4.00
2017-12-09T18:44:21.739Z,4.00
2017-12-09T18:46:50.054Z,4.00
2017-12-09T18:49:18.424Z,4.00
2017-12-09T18:51:48.156Z,4.00
2017-12-09T18:54:16.428Z,4.00
2017-12-09T18:56:45.035Z,3.90
2017-12-09T18:59:14.065Z,4.10
2017-12-09T19:01:42.658Z,3.90
2017-12-09T19:04:13.871Z,3.70
2017-12-09T19:06:47.554Z,3.70
2017-12-09T19:09:15.847Z,3.70
2017-12-09T19:11:44.901Z,3.60
2017-12-09T19:14:13.526Z,3.60
2017-12-09T19:16:42.578Z,3.50
2017-12-09T19:19:10.936Z,3.50
2017-12-09T19:21:39.429Z,3.50
2017-12-09T19:24:07.710Z,3.40
2017-12-09T19:26:36.028Z,3.40
2017-12-09T19:29:05.123Z,3.30
2017-12-09T19:31:33.727Z,3.30
2017-12-09T19:34:02.802Z,3.30
2017-12-09T19:36:31.096Z,3.60
2017-12-09T19:39:01.023Z,3.30
2017-12-09T19:41:30.978Z,3.30
2017-12-09T19:43:59.278Z,3.30
2017-12-09T19:46:27.582Z,3.30
2017-12-09T19:48:56.998Z,3.30
2017-12-09T19:51:26.039Z,3.30
2017-12-09T19:53:54.308Z,3.30
2017-12-09T19:56:22.754Z,3.40
2017-12-09T19:58:51.081Z,3.40
2017-12-09T20:01:19.431Z,3.40
2017-12-09T20:03:47.694Z,3.40
2017-12-09T20:06:16.307Z,3.30
2017-12-09T20:08:44.574Z,3.40
2017-12-09T20:11:12.865Z,3.30
2017-12-09T20:13:41.152Z,3.30
2017-12-09T20:16:09.452Z,3.30
2017-12-09T20:18:37.744Z,3.40
2017-12-09T20:21:06.060Z,3.40
2017-12-09T20:23:34.424Z,3.40
2017-12-09T20:26:02.692Z,3.40
2017-12-09T20:28:32.018Z,3.50
2017-12-09T20:31:00.328Z,3.50
2017-12-09T20:33:28.705Z,3.50
2017-12-09T20:35:57.030Z,3.60
2017-12-09T20:38:26.173Z,3.50
2017-12-09T20:40:55.265Z,3.50
2017-12-09T20:43:23.658Z,3.60
2017-12-09T20:45:51.979Z,3.60
2017-12-09T20:48:20.313Z,3.50
2017-12-09T20:50:48.895Z,3.50
2017-12-09T20:53:17.222Z,3.50
2017-12-09T20:55:46.328Z,3.60
2017-12-09T20:58:14.627Z,3.60
2017-12-09T21:00:42.942Z,3.60
2017-12-09T21:03:11.264Z,3.60
2017-12-09T21:05:40.297Z,3.60
2017-12-09T21:08:08.986Z,3.60
2017-12-09T21:10:37.247Z,3.60
2017-12-09T21:13:05.554Z,3.70
2017-12-09T21:15:33.878Z,3.70
2017-12-09T21:18:02.973Z,3.70
2017-12-09T21:20:32.169Z,3.70
2017-12-09T21:23:01.248Z,3.80
2017-12-09T21:25:30.060Z,3.80
2017-12-09T21:27:59.106Z,3.80
2017-12-09T21:30:27.382Z,3.80
2017-12-09T21:32:55.686Z,3.80
2017-12-09T21:35:24.023Z,3.90
2017-12-09T21:37:52.322Z,3.90
2017-12-09T21:40:20.592Z,3.90
2017-12-09T21:42:48.925Z,3.90
2017-12-09T21:45:18.121Z,3.90
2017-12-09T21:47:46.710Z,3.90
2017-12-09T21:50:16.778Z,3.90
2017-12-09T21:52:45.104Z,3.80
2017-12-09T21:55:14.149Z,3.90
2017-12-09T21:57:42.456Z,3.90
2017-12-09T22:00:10.786Z,3.80
2017-12-09T22:02:39.838Z,3.80
2017-12-09T22:05:10.250Z,3.80
2017-12-09T22:07:38.534Z,3.80
2017-12-09T22:10:07.254Z,3.80
2017-12-09T22:12:36.386Z,3.80
2017-12-09T22:15:04.694Z,3.80
2017-12-09T22:17:33.018Z,3.80
2017-12-09T22:20:01.325Z,3.80
2017-12-09T22:22:29.635Z,3.80
2017-12-09T22:24:57.955Z,3.80
2017-12-09T22:27:27.402Z,3.80
2017-12-09T22:29:55.687Z,3.80
2017-12-09T22:32:24.011Z,3.80
2017-12-09T22:34:53.125Z,3.80
2017-12-09T22:37:21.450Z,3.80
2017-12-09T22:39:50.533Z,3.70
2017-12-09T22:42:18.857Z,3.70
2017-12-09T22:44:47.176Z,3.70
2017-12-09T22:47:15.489Z,3.60
2017-12-09T22:49:44.073Z,3.60
2017-12-09T22:52:12.356Z,3.70
2017-12-09T22:54:41.402Z,3.70
2017-12-09T22:57:09.780Z,3.70
2017-12-09T22:59:38.086Z,3.80
2017-12-09T23:02:06.396Z,3.80
2017-12-09T23:04:35.445Z,3.80
2017-12-09T23:07:05.953Z,3.80
2017-12-09T23:09:34.218Z,3.80
2017-12-09T23:12:02.489Z,3.80
2017-12-09T23:14:31.317Z,3.90
2017-12-09T23:16:59.585Z,3.90
2017-12-09T23:19:27.935Z,3.80
2017-12-09T23:21:56.454Z,3.80
2017-12-09T23:24:25.051Z,3.80
2017-12-09T23:26:53.466Z,3.80
2017-12-09T23:29:21.842Z,3.80
2017-12-09T23:31:50.907Z,3.80
2017-12-09T23:34:19.242Z,3.80
2017-12-09T23:36:47.566Z,3.80
2017-12-09T23:39:15.873Z,3.90
2017-12-09T23:41:44.161Z,3.90
2017-12-09T23:44:15.140Z,3.90
2017-12-09T23:46:43.759Z,3.90
2017-12-09T23:49:12.013Z,3.90
2017-12-09T23:51:40.285Z,3.90
2017-12-09T23:54:08.576Z,3.90
2017-12-09T23:56:36.854Z,3.90
2017-12-09T23:59:05.136Z,3.90
